Northlake, Georgia
Current Conditions -  °F | °C
As of 11:53 PM on Wednesday 26 Nov 2014 (Local Time) from KPDK Reporting Station
Overcast Overcast  
Wind Chill: 42°   Ceiling: 6500
Heat Index: 45°   Visibility: 10mi
Dew Point: 32°   Wind: 6mph
Humidity: 60%   Direction: 210°SSW
Pressure: 30.05"   Gusts: NA
Location:  33.8504°N, 84.2813°W
Report Text: KPDK 270453Z AUTO 21005KT 10SM BKN065 OVC090 07/00 A3005 RMK AO2 SLP180 T00720000 401280044
Loading
Personal Weather Stations






























Interactive Weather Map New forecast layout! Learn more

10-Day Weather Forecast

Advertisements
Track Severe Weather on mobile